Time;durP1;ratioP1;P1;durP2;ratioP2;P2;SDS_P1;SDS_P2;PMS_P1;PMS_P2;Temp;Humidity;BMP_temperature;BMP_pressure;BME280_temperature;BME280_humidity;BME280_pressure;Samples;Min_cycle;Max_cycle;Signal;HPM_P1;HPM_P2
2023/06/08 00:00:26;;;;;;;8.27;7.50;;;;;;;;;;4923701;29;20201;-71
2023/06/08 00:02:53;;;;;;;7.87;7.10;;;;;;;;;;4927380;29;20205;-71
2023/06/08 00:05:20;;;;;;;7.77;7.17;;;;;;;;;;4927160;29;20658;-71
2023/06/08 00:07:46;;;;;;;8.77;7.87;;;;;;;;;;4927095;29;20186;-71
2023/06/08 00:10:12;;;;;;;8.13;7.33;;;;;;;;;;4923211;29;20344;-71
2023/06/08 00:12:39;;;;;;;8.00;7.20;;;;;;;;;;4921283;29;20986;-71
2023/06/08 00:15:07;;;;;;;8.90;8.00;;;;;;;;;;4924011;29;20213;-72
2023/06/08 00:17:33;;;;;;;8.10;7.33;;;;;;;;;;4928853;29;20177;-71
2023/06/08 00:20:08;;;;;;;7.60;7.00;;;;;;;;;;4924797;29;20202;-76
2023/06/08 00:22:36;;;;;;;8.47;7.20;;;;;;;;;;4921132;29;20574;-77
2023/06/08 00:25:03;;;;;;;9.07;7.40;;;;;;;;;;4922344;29;20269;-75
2023/06/08 00:27:30;;;;;;;8.43;7.03;;;;;;;;;;4923254;29;20616;-74
2023/06/08 00:29:57;;;;;;;8.00;7.17;;;;;;;;;;4929564;29;20324;-71
2023/06/08 00:32:23;;;;;;;7.50;6.83;;;;;;;;;;4926994;29;20210;-71
2023/06/08 00:34:49;;;;;;;8.00;7.20;;;;;;;;;;4929411;29;20650;-71
2023/06/08 00:37:15;;;;;;;7.70;6.90;;;;;;;;;;4925895;29;20345;-72
2023/06/08 00:39:41;;;;;;;7.80;7.00;;;;;;;;;;4916769;29;20257;-71
2023/06/08 00:42:08;;;;;;;7.87;7.07;;;;;;;;;;4922570;29;20191;-71
2023/06/08 00:44:35;;;;;;;7.93;7.20;;;;;;;;;;4928010;29;20202;-71
2023/06/08 00:47:01;;;;;;;8.83;7.30;;;;;;;;;;4934342;29;20558;-71
2023/06/08 00:49:28;;;;;;;7.77;7.07;;;;;;;;;;4915040;29;20190;-71
2023/06/08 00:51:55;;;;;;;6.80;6.10;;;;;;;;;;4926969;29;20316;-71
2023/06/08 00:54:25;;;;;;;7.37;6.77;;;;;;;;;;4934913;29;20186;-71
2023/06/08 00:56:52;;;;;;;6.97;6.37;;;;;;;;;;4931856;29;20189;-71
2023/06/08 00:59:20;;;;;;;6.97;6.27;;;;;;;;;;4933998;29;20196;-72
2023/06/08 01:01:47;;;;;;;7.90;7.10;;;;;;;;;;4924062;29;20206;-71
2023/06/08 01:04:14;;;;;;;7.97;7.27;;;;;;;;;;4926176;29;20190;-71
2023/06/08 01:06:44;;;;;;;8.20;7.50;;;;;;;;;;4923039;29;20201;-71
2023/06/08 01:09:17;;;;;;;7.90;7.10;;;;;;;;;;4923808;29;20550;-71
2023/06/08 01:12:02;;;;;;;8.00;7.20;;;;;;;;;;4919051;29;20206;-71
2023/06/08 01:14:47;;;;;;;7.30;6.60;;;;;;;;;;4923883;29;20182;-71
2023/06/08 01:17:17;;;;;;;7.90;6.77;;;;;;;;;;4922147;29;20241;-71
2023/06/08 01:19:48;;;;;;;6.97;6.37;;;;;;;;;;4920617;29;20198;-71
2023/06/08 01:22:27;;;;;;;6.70;6.10;;;;;;;;;;4905139;29;20232;-71
2023/06/08 01:24:56;;;;;;;7.20;6.50;;;;;;;;;;4921750;29;20186;-71
2023/06/08 01:27:25;;;;;;;7.53;6.83;;;;;;;;;;4926605;29;20230;-71
2023/06/08 01:29:51;;;;;;;6.90;6.27;;;;;;;;;;4923897;29;21739;-71
2023/06/08 01:32:19;;;;;;;7.90;7.30;;;;;;;;;;4910477;29;20273;-71
2023/06/08 01:34:46;;;;;;;8.30;7.60;;;;;;;;;;4925308;29;20194;-71
2023/06/08 01:37:13;;;;;;;7.90;7.20;;;;;;;;;;4935274;29;20206;-71
2023/06/08 01:40:06;;;;;;;9.33;8.43;;;;;;;;;;4925054;29;20191;-71
2023/06/08 01:42:34;;;;;;;8.53;7.53;;;;;;;;;;4920162;29;20699;-71
2023/06/08 01:45:03;;;;;;;8.60;7.80;;;;;;;;;;4932530;29;20547;-71
2023/06/08 01:47:49;;;;;;;8.40;7.60;;;;;;;;;;4930660;29;20182;-71
2023/06/08 01:50:16;;;;;;;8.63;7.77;;;;;;;;;;4919174;29;20222;-71
2023/06/08 01:52:43;;;;;;;8.10;7.40;;;;;;;;;;4927460;29;20223;-71
2023/06/08 01:55:19;;;;;;;7.67;6.80;;;;;;;;;;4922663;29;20211;-71
2023/06/08 01:57:46;;;;;;;7.70;7.00;;;;;;;;;;4930733;29;20240;-71
2023/06/08 02:00:13;;;;;;;7.43;6.73;;;;;;;;;;4926719;29;20199;-71
2023/06/08 02:02:39;;;;;;;8.90;8.03;;;;;;;;;;4924101;29;20237;-71
2023/06/08 02:05:10;;;;;;;9.73;8.93;;;;;;;;;;4931730;29;20544;-71
2023/06/08 02:07:40;;;;;;;9.17;8.37;;;;;;;;;;4921589;29;20182;-71
2023/06/08 02:10:07;;;;;;;9.27;8.57;;;;;;;;;;4925386;29;20706;-71
2023/06/08 02:12:35;;;;;;;9.03;8.20;;;;;;;;;;4925085;29;20708;-71
2023/06/08 02:15:01;;;;;;;11.27;8.60;;;;;;;;;;4927848;29;20214;-71
2023/06/08 02:17:33;;;;;;;9.50;8.60;;;;;;;;;;4923996;29;20190;-71
2023/06/08 02:20:07;;;;;;;9.17;8.27;;;;;;;;;;4920581;29;20642;-71
2023/06/08 02:22:35;;;;;;;9.30;8.50;;;;;;;;;;4926225;29;20274;-71
2023/06/08 02:25:01;;;;;;;9.40;8.60;;;;;;;;;;4925221;29;20194;-71
2023/06/08 02:27:27;;;;;;;8.73;8.03;;;;;;;;;;4927986;29;20249;-71
2023/06/08 02:29:54;;;;;;;9.00;8.20;;;;;;;;;;4933013;29;20844;-71
2023/06/08 02:32:20;;;;;;;9.60;8.60;;;;;;;;;;4930802;29;20294;-71
2023/06/08 02:34:55;;;;;;;8.90;8.20;;;;;;;;;;4929199;29;20260;-71
2023/06/08 02:37:23;;;;;;;9.83;8.83;;;;;;;;;;4920705;29;20186;-71
2023/06/08 02:39:50;;;;;;;10.43;8.60;;;;;;;;;;4925621;29;20680;-71
2023/06/08 02:42:18;;;;;;;9.40;8.43;;;;;;;;;;4916156;29;20225;-71
2023/06/08 02:44:48;;;;;;;9.83;8.83;;;;;;;;;;4934139;29;20192;-71
2023/06/08 02:47:16;;;;;;;10.03;9.00;;;;;;;;;;4927780;29;20767;-71
2023/06/08 02:49:42;;;;;;;9.93;9.03;;;;;;;;;;4927514;29;20197;-71
2023/06/08 02:52:09;;;;;;;11.07;9.97;;;;;;;;;;4931208;29;20296;-71
2023/06/08 02:54:36;;;;;;;10.17;9.27;;;;;;;;;;4922049;29;20187;-71
2023/06/08 02:57:02;;;;;;;9.53;8.67;;;;;;;;;;4926112;29;20322;-71
2023/06/08 02:59:31;;;;;;;9.73;8.93;;;;;;;;;;4933811;29;20661;-71
2023/06/08 03:01:58;;;;;;;9.37;8.57;;;;;;;;;;4919975;29;20214;-71
2023/06/08 03:04:29;;;;;;;9.33;8.33;;;;;;;;;;4928707;29;20193;-71
2023/06/08 03:07:01;;;;;;;9.67;8.83;;;;;;;;;;4923962;29;20588;-71
2023/06/08 03:09:30;;;;;;;9.53;8.53;;;;;;;;;;4925991;29;20182;-71
2023/06/08 03:12:02;;;;;;;10.37;9.40;;;;;;;;;;4928843;29;20225;-71
2023/06/08 03:14:31;;;;;;;9.90;9.00;;;;;;;;;;4917464;29;20217;-71
2023/06/08 03:17:02;;;;;;;10.60;9.70;;;;;;;;;;4926747;29;20178;-71
2023/06/08 03:19:30;;;;;;;10.83;9.83;;;;;;;;;;4921945;29;20182;-71
2023/06/08 03:22:00;;;;;;;11.00;9.80;;;;;;;;;;4926008;29;20288;-71
2023/06/08 03:24:31;;;;;;;11.07;10.13;;;;;;;;;;4928838;29;20190;-71
2023/06/08 03:27:01;;;;;;;10.70;9.60;;;;;;;;;;4930754;29;20198;-71
2023/06/08 03:29:28;;;;;;;10.67;9.67;;;;;;;;;;4930522;29;20253;-71
2023/06/08 03:31:56;;;;;;;11.07;10.07;;;;;;;;;;4925981;29;20225;-71
2023/06/08 03:34:27;;;;;;;10.67;9.70;;;;;;;;;;4926558;29;20190;-71
2023/06/08 03:37:00;;;;;;;11.00;10.00;;;;;;;;;;4916546;29;20264;-71
2023/06/08 03:39:26;;;;;;;11.07;10.10;;;;;;;;;;4926333;29;20818;-72
2023/06/08 03:41:52;;;;;;;10.80;9.37;;;;;;;;;;4930088;29;20237;-71
2023/06/08 03:44:21;;;;;;;13.00;11.33;;;;;;;;;;4922410;29;20179;-71
2023/06/08 03:46:47;;;;;;;11.17;10.17;;;;;;;;;;4927956;29;20601;-71
2023/06/08 03:49:14;;;;;;;10.27;9.30;;;;;;;;;;4908111;29;20213;-71
2023/06/08 03:51:40;;;;;;;10.63;9.63;;;;;;;;;;4914482;29;20280;-71
2023/06/08 03:54:07;;;;;;;9.37;8.50;;;;;;;;;;4925051;29;20197;-71
2023/06/08 03:56:33;;;;;;;9.43;8.63;;;;;;;;;;4924260;29;20295;-71
2023/06/08 03:59:02;;;;;;;9.43;8.63;;;;;;;;;;4925730;29;20218;-71
2023/06/08 04:01:30;;;;;;;9.23;8.33;;;;;;;;;;4917546;29;20218;-71
2023/06/08 04:03:56;;;;;;;8.90;8.10;;;;;;;;;;4931097;29;20245;-71
2023/06/08 04:06:23;;;;;;;8.60;7.90;;;;;;;;;;4932316;29;20713;-71
2023/06/08 04:08:51;;;;;;;9.57;8.17;;;;;;;;;;4913270;29;20194;-72
2023/06/08 04:11:17;;;;;;;8.93;8.13;;;;;;;;;;4913318;29;20304;-71
2023/06/08 04:13:44;;;;;;;8.47;7.67;;;;;;;;;;4929394;29;20197;-71
2023/06/08 04:16:13;;;;;;;8.97;8.17;;;;;;;;;;4932698;29;20190;-71
2023/06/08 04:18:45;;;;;;;8.50;7.80;;;;;;;;;;4922094;29;20186;-71
2023/06/08 04:21:14;;;;;;;8.70;7.90;;;;;;;;;;4921641;29;20214;-71
2023/06/08 04:23:41;;;;;;;10.60;8.63;;;;;;;;;;4934812;29;20225;-71
2023/06/08 04:26:08;;;;;;;9.63;8.73;;;;;;;;;;4930423;29;20194;-71
2023/06/08 04:28:35;;;;;;;9.20;8.40;;;;;;;;;;4926940;29;20183;-71
2023/06/08 04:31:04;;;;;;;10.07;9.17;;;;;;;;;;4915666;29;20218;-71
2023/06/08 04:33:32;;;;;;;9.80;8.90;;;;;;;;;;4930054;29;20182;-71
2023/06/08 04:36:02;;;;;;;9.67;8.77;;;;;;;;;;4916008;29;20306;-71
2023/06/08 04:38:28;;;;;;;9.30;8.40;;;;;;;;;;4932366;29;20193;-71
2023/06/08 04:40:56;;;;;;;9.10;8.20;;;;;;;;;;4912771;29;20596;-71
2023/06/08 04:43:31;;;;;;;8.93;8.13;;;;;;;;;;4927238;29;20186;-72
2023/06/08 04:46:05;;;;;;;9.63;8.73;;;;;;;;;;4932051;29;20576;-71
2023/06/08 04:48:33;;;;;;;9.70;8.77;;;;;;;;;;4930707;29;20226;-71
2023/06/08 04:51:01;;;;;;;8.73;8.03;;;;;;;;;;4946465;29;20234;-71
2023/06/08 04:53:28;;;;;;;9.40;8.50;;;;;;;;;;4934141;29;20182;-71
2023/06/08 04:55:57;;;;;;;9.30;8.43;;;;;;;;;;4934282;29;20204;-72
2023/06/08 04:58:26;;;;;;;9.43;8.57;;;;;;;;;;4931152;29;20636;-71
2023/06/08 05:00:53;;;;;;;8.90;8.10;;;;;;;;;;4932298;29;20206;-71
2023/06/08 05:03:20;;;;;;;7.90;7.27;;;;;;;;;;4930233;29;20178;-71
2023/06/08 05:05:46;;;;;;;8.80;8.00;;;;;;;;;;4935850;29;20266;-71
2023/06/08 05:08:13;;;;;;;9.80;8.90;;;;;;;;;;4934329;29;20708;-71
2023/06/08 05:10:39;;;;;;;9.27;8.03;;;;;;;;;;4933896;29;20209;-71
2023/06/08 05:13:05;;;;;;;9.37;8.47;;;;;;;;;;4919322;29;20214;-71
2023/06/08 05:15:31;;;;;;;8.80;8.00;;;;;;;;;;4933619;29;20261;-71
2023/06/08 05:17:58;;;;;;;8.03;7.30;;;;;;;;;;4935083;29;20189;-71
2023/06/08 05:20:25;;;;;;;9.27;8.33;;;;;;;;;;4921732;29;20973;-71
2023/06/08 05:22:52;;;;;;;8.87;8.03;;;;;;;;;;4933250;29;20252;-71
2023/06/08 05:25:18;;;;;;;8.57;7.70;;;;;;;;;;4935354;29;20245;-71
2023/06/08 05:27:44;;;;;;;8.63;7.83;;;;;;;;;;4928246;29;20181;-71
2023/06/08 05:30:11;;;;;;;8.07;7.33;;;;;;;;;;4933840;29;20228;-71
2023/06/08 05:32:37;;;;;;;8.10;7.30;;;;;;;;;;4933675;29;20217;-71
2023/06/08 05:35:03;;;;;;;8.43;7.60;;;;;;;;;;4933480;29;20178;-71
2023/06/08 05:37:30;;;;;;;8.60;7.90;;;;;;;;;;4939391;29;20280;-71
2023/06/08 05:39:56;;;;;;;8.53;7.73;;;;;;;;;;4935556;28;20566;-71
2023/06/08 05:42:23;;;;;;;9.00;8.20;;;;;;;;;;4928366;29;20226;-71
2023/06/08 05:44:49;;;;;;;9.50;8.60;;;;;;;;;;4931832;29;20926;-71
2023/06/08 05:47:16;;;;;;;10.47;8.70;;;;;;;;;;4928931;29;20241;-72
2023/06/08 05:49:42;;;;;;;9.53;8.53;;;;;;;;;;4931811;29;20280;-71
2023/06/08 05:52:08;;;;;;;8.80;7.97;;;;;;;;;;4933753;29;20691;-71
2023/06/08 05:54:35;;;;;;;9.60;8.70;;;;;;;;;;4933329;29;20186;-71
2023/06/08 05:57:01;;;;;;;8.93;8.03;;;;;;;;;;4933288;29;20280;-71
2023/06/08 05:59:27;;;;;;;8.73;7.97;;;;;;;;;;4931112;29;20186;-71
2023/06/08 06:01:54;;;;;;;8.07;7.37;;;;;;;;;;4928103;29;20206;-71
2023/06/08 06:04:20;;;;;;;8.07;7.27;;;;;;;;;;4929095;29;20186;-71
2023/06/08 06:06:46;;;;;;;8.27;7.50;;;;;;;;;;4927023;29;20213;-71
2023/06/08 06:09:13;;;;;;;8.13;7.43;;;;;;;;;;4926829;29;20233;-71
2023/06/08 06:11:39;;;;;;;9.13;8.30;;;;;;;;;;4924130;29;20218;-74
2023/06/08 06:14:06;;;;;;;8.67;7.70;;;;;;;;;;4929293;29;20190;-75
2023/06/08 06:16:32;;;;;;;8.40;7.70;;;;;;;;;;4929778;29;20186;-75
2023/06/08 06:18:58;;;;;;;8.40;7.70;;;;;;;;;;4926542;29;20297;-72
2023/06/08 06:21:25;;;;;;;8.03;7.33;;;;;;;;;;4928633;29;20206;-74
2023/06/08 06:23:52;;;;;;;7.53;6.93;;;;;;;;;;4924856;29;20218;-74
2023/06/08 06:26:18;;;;;;;8.37;7.57;;;;;;;;;;4931472;29;20199;-74
2023/06/08 06:28:44;;;;;;;8.30;7.60;;;;;;;;;;4933524;29;20174;-75
2023/06/08 06:31:10;;;;;;;8.93;8.13;;;;;;;;;;4929679;29;20568;-75
2023/06/08 06:33:36;;;;;;;10.50;7.67;;;;;;;;;;4921401;29;20555;-75
2023/06/08 06:36:03;;;;;;;8.13;7.43;;;;;;;;;;4926456;29;20186;-76
2023/06/08 06:38:29;;;;;;;9.07;7.67;;;;;;;;;;4926304;29;20565;-73
2023/06/08 06:40:55;;;;;;;8.10;7.40;;;;;;;;;;4909558;29;20293;-73
2023/06/08 06:43:22;;;;;;;8.03;7.40;;;;;;;;;;4922488;29;20555;-73
2023/06/08 06:46:00;;;;;;;7.70;7.10;;;;;;;;;;4926843;29;20214;-73
2023/06/08 06:48:26;;;;;;;7.67;6.97;;;;;;;;;;4928086;29;20590;-73
2023/06/08 06:50:52;;;;;;;9.03;7.30;;;;;;;;;;4919649;29;20212;-73
2023/06/08 06:53:19;;;;;;;7.93;7.13;;;;;;;;;;4925835;29;20229;-73
2023/06/08 06:55:45;;;;;;;8.30;7.60;;;;;;;;;;4908534;29;20697;-73
2023/06/08 06:58:12;;;;;;;8.03;7.33;;;;;;;;;;4926322;29;20210;-73
2023/06/08 07:00:39;;;;;;;7.97;7.27;;;;;;;;;;4926842;29;20194;-73
2023/06/08 07:03:06;;;;;;;8.23;7.50;;;;;;;;;;4923171;29;20190;-74
2023/06/08 07:05:32;;;;;;;8.40;7.60;;;;;;;;;;4930865;29;20178;-73
2023/06/08 07:07:58;;;;;;;7.90;7.20;;;;;;;;;;4930071;29;20212;-73
2023/06/08 07:10:24;;;;;;;8.30;7.53;;;;;;;;;;4906919;29;20236;-74
2023/06/08 07:12:50;;;;;;;8.17;7.37;;;;;;;;;;4927095;29;20630;-73
2023/06/08 07:15:18;;;;;;;7.60;6.90;;;;;;;;;;4927955;29;20214;-73
2023/06/08 07:17:46;;;;;;;8.40;7.60;;;;;;;;;;4932473;29;20185;-73
2023/06/08 07:20:13;;;;;;;7.43;6.83;;;;;;;;;;4929826;29;20253;-73
2023/06/08 07:22:39;;;;;;;7.83;7.10;;;;;;;;;;4908490;29;20219;-73
2023/06/08 07:25:06;;;;;;;7.80;7.00;;;;;;;;;;4931296;29;20218;-73
2023/06/08 07:27:32;;;;;;;7.93;7.13;;;;;;;;;;4909519;29;20223;-73
2023/06/08 07:29:58;;;;;;;8.13;7.43;;;;;;;;;;4930410;29;20200;-73
2023/06/08 07:32:26;;;;;;;7.33;6.73;;;;;;;;;;4928182;29;20252;-73
2023/06/08 07:34:53;;;;;;;8.47;7.77;;;;;;;;;;4934286;29;20193;-74
2023/06/08 07:37:19;;;;;;;9.23;7.77;;;;;;;;;;4929408;29;20253;-74
2023/06/08 07:39:45;;;;;;;8.40;7.60;;;;;;;;;;4928623;29;20177;-73
2023/06/08 07:42:12;;;;;;;8.50;7.70;;;;;;;;;;4927878;29;20276;-74
2023/06/08 07:44:38;;;;;;;8.80;8.00;;;;;;;;;;4927323;29;20181;-73
2023/06/08 07:47:04;;;;;;;8.03;7.33;;;;;;;;;;4930645;29;20293;-73
2023/06/08 07:49:30;;;;;;;8.77;7.97;;;;;;;;;;4923110;29;20269;-72
2023/06/08 07:51:56;;;;;;;8.40;7.60;;;;;;;;;;4928248;29;20226;-73
2023/06/08 07:54:23;;;;;;;7.57;6.97;;;;;;;;;;4929243;29;20213;-73
2023/06/08 07:56:50;;;;;;;8.30;7.40;;;;;;;;;;4936787;29;20189;-73
2023/06/08 07:59:16;;;;;;;8.57;7.67;;;;;;;;;;4936517;29;20174;-73
2023/06/08 08:01:43;;;;;;;8.20;7.40;;;;;;;;;;4934625;29;20206;-73
2023/06/08 08:04:10;;;;;;;9.47;8.27;;;;;;;;;;4934377;29;20626;-73
2023/06/08 08:06:37;;;;;;;9.17;8.37;;;;;;;;;;4934048;29;20193;-73
2023/06/08 08:09:03;;;;;;;9.47;8.63;;;;;;;;;;4934885;29;20201;-74
2023/06/08 08:11:29;;;;;;;9.20;8.43;;;;;;;;;;4936086;29;20248;-73
2023/06/08 08:13:56;;;;;;;8.70;7.90;;;;;;;;;;4927788;29;20194;-73
2023/06/08 08:16:24;;;;;;;11.77;9.63;;;;;;;;;;4934060;29;20186;-74
2023/06/08 08:18:50;;;;;;;10.73;9.20;;;;;;;;;;4935333;29;20186;-73
2023/06/08 08:21:16;;;;;;;9.43;8.63;;;;;;;;;;4924009;29;20214;-73
2023/06/08 08:23:42;;;;;;;9.47;8.67;;;;;;;;;;4930638;29;20190;-73
2023/06/08 08:26:08;;;;;;;9.73;8.93;;;;;;;;;;4935544;29;20244;-74
2023/06/08 08:28:38;;;;;;;9.37;8.57;;;;;;;;;;4933079;29;20266;-73
2023/06/08 08:31:04;;;;;;;9.43;8.53;;;;;;;;;;4933649;29;20626;-73
2023/06/08 08:33:30;;;;;;;9.63;8.73;;;;;;;;;;4931225;29;20206;-73
2023/06/08 08:35:57;;;;;;;9.73;8.93;;;;;;;;;;4929248;29;20240;-73
2023/06/08 08:38:26;;;;;;;9.20;8.37;;;;;;;;;;4923436;29;20258;-73
2023/06/08 08:40:53;;;;;;;9.33;8.53;;;;;;;;;;4921224;29;20694;-73
2023/06/08 08:43:24;;;;;;;8.90;8.20;;;;;;;;;;4931469;29;20202;-73
2023/06/08 08:45:51;;;;;;;10.27;9.37;;;;;;;;;;4935269;29;20226;-73
2023/06/08 08:48:22;;;;;;;8.80;8.00;;;;;;;;;;4934467;29;20675;-73
2023/06/08 08:50:53;;;;;;;8.63;7.80;;;;;;;;;;4933761;29;20700;-74
2023/06/08 08:53:21;;;;;;;8.40;7.70;;;;;;;;;;4931005;29;20190;-74
2023/06/08 08:55:48;;;;;;;9.20;8.40;;;;;;;;;;4924873;29;20237;-74
2023/06/08 08:58:18;;;;;;;9.03;8.23;;;;;;;;;;4932727;29;20177;-73
2023/06/08 09:00:50;;;;;;;8.93;7.73;;;;;;;;;;4926579;29;20210;-74
2023/06/08 09:03:16;;;;;;;8.37;7.53;;;;;;;;;;4930780;29;20858;-74
2023/06/08 09:05:43;;;;;;;7.73;7.13;;;;;;;;;;4933289;28;20685;-73
2023/06/08 09:08:10;;;;;;;8.90;8.20;;;;;;;;;;4934739;29;20185;-72
2023/06/08 09:10:36;;;;;;;9.00;8.20;;;;;;;;;;4928520;29;20721;-72
2023/06/08 09:13:02;;;;;;;9.60;8.10;;;;;;;;;;4931172;29;20669;-74
2023/06/08 09:15:29;;;;;;;7.90;7.30;;;;;;;;;;4931673;29;20241;-74
2023/06/08 09:17:55;;;;;;;10.00;8.07;;;;;;;;;;4934327;29;20273;-74
2023/06/08 09:20:29;;;;;;;8.60;7.90;;;;;;;;;;4922027;29;20202;-74
2023/06/08 09:22:55;;;;;;;8.60;7.80;;;;;;;;;;4934438;29;20625;-74
2023/06/08 09:25:38;;;;;;;8.00;7.30;;;;;;;;;;4935099;29;20257;-73
2023/06/08 09:28:17;;;;;;;8.00;7.20;;;;;;;;;;4934871;29;20212;-74
2023/06/08 09:30:49;;;;;;;8.67;7.97;;;;;;;;;;4934394;29;20217;-73
2023/06/08 09:33:29;;;;;;;7.87;7.27;;;;;;;;;;4933841;29;20209;-73
2023/06/08 09:35:58;;;;;;;8.13;7.40;;;;;;;;;;4933634;29;20226;-73
2023/06/08 09:38:28;;;;;;;8.50;7.70;;;;;;;;;;4934502;29;20205;-73
2023/06/08 09:41:14;;;;;;;8.17;7.47;;;;;;;;;;4934221;29;20222;-73
2023/06/08 09:43:42;;;;;;;8.83;8.03;;;;;;;;;;4933405;29;20186;-73
2023/06/08 09:46:11;;;;;;;8.50;7.80;;;;;;;;;;4933101;29;20194;-73
2023/06/08 09:48:40;;;;;;;8.33;7.63;;;;;;;;;;4933496;29;20193;-74
2023/06/08 09:51:09;;;;;;;7.90;7.20;;;;;;;;;;4931911;29;20209;-74
2023/06/08 09:53:36;;;;;;;10.17;7.60;;;;;;;;;;4936021;29;20178;-74
2023/06/08 09:56:04;;;;;;;8.17;7.37;;;;;;;;;;4932157;29;20590;-74
2023/06/08 09:58:35;;;;;;;8.10;7.37;;;;;;;;;;4933022;29;20213;-73
2023/06/08 10:01:04;;;;;;;8.13;7.53;;;;;;;;;;4923234;29;20308;-74
2023/06/08 10:03:32;;;;;;;9.30;8.50;;;;;;;;;;4925028;29;20210;-74
2023/06/08 10:05:59;;;;;;;7.90;7.20;;;;;;;;;;4932437;29;20252;-73
2023/06/08 10:08:27;;;;;;;7.53;6.93;;;;;;;;;;4928823;29;20587;-74
2023/06/08 10:10:55;;;;;;;8.17;7.47;;;;;;;;;;4933864;29;20220;-74
2023/06/08 10:13:22;;;;;;;8.30;7.70;;;;;;;;;;4932457;29;20546;-74
2023/06/08 10:15:49;;;;;;;9.03;8.20;;;;;;;;;;4932653;29;20197;-73
2023/06/08 10:18:15;;;;;;;7.73;7.13;;;;;;;;;;4923406;29;20926;-74
2023/06/08 10:20:41;;;;;;;7.23;6.63;;;;;;;;;;4931746;29;20214;-73
2023/06/08 10:23:08;;;;;;;8.57;7.87;;;;;;;;;;4935291;29;20185;-74
2023/06/08 10:25:35;;;;;;;9.37;8.57;;;;;;;;;;4932362;29;20182;-74
2023/06/08 10:28:05;;;;;;;8.37;7.63;;;;;;;;;;4931087;29;20201;-74
2023/06/08 10:30:39;;;;;;;8.00;7.30;;;;;;;;;;4933437;29;20264;-74
2023/06/08 10:33:12;;;;;;;8.37;7.67;;;;;;;;;;4932776;29;20231;-74
2023/06/08 10:35:42;;;;;;;7.50;6.90;;;;;;;;;;4935049;29;20272;-74
2023/06/08 10:38:12;;;;;;;8.77;8.07;;;;;;;;;;4922346;29;20179;-73
2023/06/08 10:40:45;;;;;;;7.60;7.00;;;;;;;;;;4926966;29;20208;-74
2023/06/08 10:43:11;;;;;;;7.37;6.87;;;;;;;;;;4933595;29;20273;-74
2023/06/08 10:45:38;;;;;;;7.70;7.10;;;;;;;;;;4927206;29;20193;-73
2023/06/08 10:48:07;;;;;;;8.03;7.23;;;;;;;;;;4931302;29;20197;-74
2023/06/08 10:50:40;;;;;;;7.37;6.83;;;;;;;;;;4921836;29;20573;-74
2023/06/08 10:53:06;;;;;;;8.70;7.93;;;;;;;;;;4925267;29;20268;-74
2023/06/08 10:55:32;;;;;;;7.93;7.20;;;;;;;;;;4923855;29;20217;-74
2023/06/08 10:58:06;;;;;;;7.60;7.00;;;;;;;;;;4924623;29;20186;-74
2023/06/08 11:00:33;;;;;;;7.87;7.20;;;;;;;;;;4922007;29;20253;-74
2023/06/08 11:03:04;;;;;;;7.70;6.80;;;;;;;;;;4926261;28;20197;-74
2023/06/08 11:05:37;;;;;;;7.50;6.90;;;;;;;;;;4926221;29;20178;-79
2023/06/08 11:08:06;;;;;;;8.10;7.33;;;;;;;;;;4927540;29;20199;-78
2023/06/08 11:10:32;;;;;;;8.20;7.50;;;;;;;;;;4924677;29;20277;-80
2023/06/08 11:13:09;;;;;;;8.17;7.47;;;;;;;;;;4945903;29;20709;-79
2023/06/08 11:15:36;;;;;;;8.80;7.20;;;;;;;;;;4924678;29;20193;-79
2023/06/08 11:18:07;;;;;;;7.80;7.20;;;;;;;;;;4928715;29;20277;-79
2023/06/08 11:20:33;;;;;;;8.27;7.43;;;;;;;;;;4931865;29;20677;-79
2023/06/08 11:23:01;;;;;;;10.43;7.13;;;;;;;;;;4932672;29;20247;-79
2023/06/08 11:25:27;;;;;;;6.43;5.77;;;;;;;;;;4940903;28;20188;-80
2023/06/08 11:27:55;;;;;;;6.40;5.90;;;;;;;;;;4933978;29;20277;-79
2023/06/08 11:30:22;;;;;;;7.27;6.30;;;;;;;;;;4930314;29;20228;-79
2023/06/08 11:32:48;;;;;;;9.07;6.20;;;;;;;;;;4930244;29;20213;-79
2023/06/08 11:35:15;;;;;;;12.13;8.07;;;;;;;;;;4927684;29;20329;-77
2023/06/08 11:37:43;;;;;;;18.03;9.83;;;;;;;;;;4929026;29;20674;-76
2023/06/08 11:40:10;;;;;;;9.63;8.30;;;;;;;;;;4925361;29;20229;-78
2023/06/08 11:42:37;;;;;;;14.87;9.30;;;;;;;;;;4934431;29;20283;-78
2023/06/08 11:45:04;;;;;;;10.27;9.27;;;;;;;;;;4925919;29;20205;-78
2023/06/08 11:47:31;;;;;;;11.40;9.77;;;;;;;;;;4929849;29;20559;-78
2023/06/08 11:49:57;;;;;;;12.60;9.73;;;;;;;;;;4924078;29;20273;-78
2023/06/08 11:52:27;;;;;;;12.13;10.17;;;;;;;;;;4924990;29;20224;-77
2023/06/08 11:54:54;;;;;;;15.73;10.33;;;;;;;;;;4932608;29;20229;-82
2023/06/08 11:57:21;;;;;;;13.43;10.40;;;;;;;;;;4926900;29;20632;-78
2023/06/08 11:59:47;;;;;;;15.53;9.50;;;;;;;;;;4914186;29;20186;-78
2023/06/08 12:02:13;;;;;;;11.40;9.37;;;;;;;;;;4924338;29;20190;-78
2023/06/08 12:04:40;;;;;;;8.40;7.60;;;;;;;;;;4926902;29;20236;-77
2023/06/08 12:07:07;;;;;;;10.00;7.27;;;;;;;;;;4936278;29;20205;-78
2023/06/08 12:09:34;;;;;;;8.03;7.33;;;;;;;;;;4928137;28;20269;-78
2023/06/08 12:12:08;;;;;;;8.93;8.10;;;;;;;;;;4930040;29;20308;-78
2023/06/08 12:14:35;;;;;;;8.57;7.27;;;;;;;;;;4932650;29;20193;-78
2023/06/08 12:17:05;;;;;;;8.93;7.80;;;;;;;;;;4930844;29;20653;-78
2023/06/08 12:19:31;;;;;;;9.27;7.90;;;;;;;;;;4933840;29;20187;-77
2023/06/08 12:21:58;;;;;;;9.10;8.20;;;;;;;;;;4928843;29;20213;-78
2023/06/08 12:24:24;;;;;;;9.93;8.93;;;;;;;;;;4926690;29;20292;-77
2023/06/08 12:26:50;;;;;;;9.50;8.60;;;;;;;;;;4919195;29;20190;-78
2023/06/08 12:29:18;;;;;;;9.27;8.43;;;;;;;;;;4932641;29;20592;-78
2023/06/08 12:31:44;;;;;;;11.10;8.93;;;;;;;;;;4921494;29;20598;-78
2023/06/08 12:34:10;;;;;;;9.93;9.03;;;;;;;;;;4933899;29;20190;-77
2023/06/08 12:36:36;;;;;;;9.23;8.37;;;;;;;;;;4924393;29;20187;-77
2023/06/08 12:39:03;;;;;;;9.13;8.30;;;;;;;;;;4929419;29;20277;-77
2023/06/08 12:41:29;;;;;;;8.77;7.97;;;;;;;;;;4929821;29;20597;-77
2023/06/08 12:43:55;;;;;;;8.30;7.60;;;;;;;;;;4931902;29;20196;-77
2023/06/08 12:46:22;;;;;;;7.60;7.00;;;;;;;;;;4937704;29;20193;-77
2023/06/08 12:48:49;;;;;;;7.67;6.97;;;;;;;;;;4929755;29;20213;-77
2023/06/08 12:51:16;;;;;;;7.33;6.73;;;;;;;;;;4911417;29;20210;-76
2023/06/08 12:53:42;;;;;;;7.70;6.90;;;;;;;;;;4942697;28;20190;-76
2023/06/08 12:56:08;;;;;;;7.40;6.73;;;;;;;;;;4931270;29;20192;-76
2023/06/08 12:58:35;;;;;;;7.90;7.20;;;;;;;;;;4935190;29;20242;-78
2023/06/08 13:01:01;;;;;;;7.53;6.87;;;;;;;;;;4933286;29;20206;-77
2023/06/08 13:03:27;;;;;;;7.20;6.50;;;;;;;;;;4935673;29;20186;-75
2023/06/08 13:05:53;;;;;;;8.23;6.03;;;;;;;;;;4932511;29;20679;-78
2023/06/08 13:08:19;;;;;;;8.43;6.90;;;;;;;;;;4934803;29;20549;-77
2023/06/08 13:10:45;;;;;;;7.93;7.20;;;;;;;;;;4930904;29;20677;-77
2023/06/08 13:13:12;;;;;;;7.80;6.63;;;;;;;;;;4924389;29;20226;-79
2023/06/08 13:15:38;;;;;;;8.20;7.50;;;;;;;;;;4929017;29;20194;-77
2023/06/08 13:18:06;;;;;;;7.70;7.10;;;;;;;;;;4932221;29;20182;-78
2023/06/08 13:20:33;;;;;;;7.10;6.40;;;;;;;;;;4924110;29;20245;-78
2023/06/08 13:22:59;;;;;;;7.30;6.60;;;;;;;;;;4931220;29;20793;-78
2023/06/08 13:25:25;;;;;;;6.97;6.37;;;;;;;;;;4927870;29;20634;-75
2023/06/08 13:27:52;;;;;;;6.80;6.20;;;;;;;;;;4930564;29;20724;-74
2023/06/08 13:30:19;;;;;;;6.20;5.70;;;;;;;;;;4931666;29;20701;-75
2023/06/08 13:32:45;;;;;;;6.33;5.83;;;;;;;;;;4930419;29;20277;-74
2023/06/08 13:35:11;;;;;;;7.10;6.43;;;;;;;;;;4930987;29;20216;-74
2023/06/08 13:37:37;;;;;;;6.60;6.07;;;;;;;;;;4930203;29;20199;-77
2023/06/08 13:40:04;;;;;;;6.97;6.27;;;;;;;;;;4925465;29;20273;-74
2023/06/08 13:42:32;;;;;;;6.73;6.13;;;;;;;;;;4927697;29;20196;-74
2023/06/08 13:44:59;;;;;;;7.00;6.30;;;;;;;;;;4927916;29;20182;-73
2023/06/08 13:47:25;;;;;;;7.20;6.20;;;;;;;;;;4920961;29;20228;-73
2023/06/08 13:49:51;;;;;;;7.00;6.40;;;;;;;;;;4924695;29;20186;-74
2023/06/08 13:52:18;;;;;;;7.23;6.13;;;;;;;;;;4924688;29;20209;-77
2023/06/08 13:54:44;;;;;;;7.23;6.53;;;;;;;;;;4929127;29;20957;-78
2023/06/08 13:57:10;;;;;;;6.57;5.87;;;;;;;;;;4931535;29;20265;-79
2023/06/08 13:59:36;;;;;;;5.87;5.37;;;;;;;;;;4927447;29;20213;-76
2023/06/08 14:02:02;;;;;;;5.93;5.43;;;;;;;;;;4932714;29;20687;-76
2023/06/08 14:04:30;;;;;;;5.87;5.27;;;;;;;;;;4933748;29;20732;-76
2023/06/08 14:06:56;;;;;;;5.90;5.40;;;;;;;;;;4930128;29;20310;-76
2023/06/08 14:09:22;;;;;;;5.70;5.20;;;;;;;;;;4932710;29;20205;-77
2023/06/08 14:11:49;;;;;;;5.37;4.97;;;;;;;;;;4932328;29;20683;-77
2023/06/08 14:14:15;;;;;;;5.00;4.60;;;;;;;;;;4933710;29;20183;-78
2023/06/08 14:16:42;;;;;;;5.23;4.83;;;;;;;;;;4931453;29;20533;-78
2023/06/08 14:19:08;;;;;;;4.77;4.40;;;;;;;;;;4933126;29;20221;-77
2023/06/08 14:21:34;;;;;;;4.60;4.20;;;;;;;;;;4930142;29;20221;-77
2023/06/08 14:24:00;;;;;;;4.90;4.50;;;;;;;;;;4930632;29;20186;-77
2023/06/08 14:26:26;;;;;;;4.67;4.20;;;;;;;;;;4933529;29;20189;-77
2023/06/08 14:28:52;;;;;;;4.93;4.07;;;;;;;;;;4931309;29;20706;-77
2023/06/08 14:31:19;;;;;;;4.60;4.00;;;;;;;;;;4932007;29;20229;-77
2023/06/08 14:33:45;;;;;;;4.63;4.17;;;;;;;;;;4930555;29;20199;-77
2023/06/08 14:36:11;;;;;;;4.10;3.80;;;;;;;;;;4928213;29;20189;-77
2023/06/08 14:38:37;;;;;;;4.40;4.00;;;;;;;;;;4930467;29;20239;-77
2023/06/08 14:41:03;;;;;;;4.30;3.90;;;;;;;;;;4934774;29;20617;-77
2023/06/08 14:43:30;;;;;;;4.50;4.20;;;;;;;;;;4931716;29;20258;-77